Airfield :
LOGIN :

Register | Disclaimer

   EN    FR    IT 

 










Legend :    VFR   Marginal VFR   IFR   Intensive IFR   Very Intensive IFR
Visi :
Ceiling :
>= 8 km
>= 3000ft
5 to 8 km
1000 to 3000 ft
1500m to 5 km
500 to 1000 ft
800 to 1500m
200 to 500 ft
< 800m
< 200 ft
Symbols :   Thunderstorms  Fog  Heavy snow  Heavy precipitations  Wind > 20 kt
SIGMETs :     Misc.  Thunderstorms  Icing  Turbulence  Mountain Waves  Volcanic Ashes






- Airport Elevation : 162 ft
- IATA code : BOD


LFBD - Bordeaux / Merignac

CURRENT METAR :
  • 221300Z AUTO 36005KT 340V040 9999 FEW031 SCT043 OVC049 15/09 Q1023 NOSIG

EXPIRED METARs :
  • 221230Z AUTO 33008KT 300V360 9999 FEW024 BKN030 BKN041 16/10 Q1023 NOSIG
  • 221200Z AUTO 25004KT 190V290 9999 FEW030 SCT050 17/09 Q1023 BECMG 36010KT
  • 221130Z AUTO 24003KT 210V280 9999 BKN046 BKN052 15/08 Q1023 BECMG 36010KT
  • 221100Z AUTO 31005KT 9999 FEW025 OVC044 15/09 Q1023 BECMG 01010KT
  • 221030Z AUTO 28007KT 9999 FEW022 SCT034 BKN045 16/10 Q1023 BECMG 01010KT

TAF TAF LFBD
Valid from the 22 at 12:00 until the 23 at 18:00 UTC


221100Z 2212/2318 36010KT CAVOK TX18/2213Z TN05/2306Z
BECMG 2310/2312 06010KT
ATIS : +33 5 57 92 81 04



MET'MAP, your aeronautical weather chart ! - Copyright ORBIFLY December 2007 - Disclaimer

ORBIFLY MET'MAP TEAM :

Programming & Development : Alexandra Zaïnal
Concept & original design : Baudouin d'Aumeries
Assistance for programming : Marc-Olivier Méhu
Technical & hardware support : Manuel Goepfert

Contact : metmap@orbifly.com




SOURCES & CREDITS :

   NOAA